createdAt,value
2022-12-05T00:00:54.767Z,1.55
2022-12-05T00:03:22.088Z,1.51
2022-12-05T00:05:49.437Z,1.50
2022-12-05T00:08:16.224Z,1.49
2022-12-05T00:10:43.136Z,1.50
2022-12-05T00:13:10.303Z,1.46
2022-12-05T00:15:41.107Z,1.45
2022-12-05T00:18:07.793Z,1.50
2022-12-05T00:20:34.720Z,1.54
2022-12-05T00:23:01.540Z,1.35
2022-12-05T00:25:28.597Z,1.51
2022-12-05T00:27:55.239Z,1.45
2022-12-05T00:30:21.919Z,1.44
2022-12-05T00:32:48.669Z,1.46
2022-12-05T00:35:15.394Z,1.47
2022-12-05T00:37:42.105Z,1.46
2022-12-05T00:40:09.309Z,1.44
2022-12-05T00:42:35.927Z,1.48
2022-12-05T00:45:02.729Z,1.49
2022-12-05T00:47:29.441Z,1.43
2022-12-05T00:49:56.318Z,1.47
2022-12-05T00:52:23.280Z,1.46
2022-12-05T00:54:50.078Z,1.51
2022-12-05T00:57:16.766Z,1.46
2022-12-05T00:59:43.596Z,1.53
2022-12-05T01:02:10.317Z,1.50
2022-12-05T01:04:37.038Z,1.60
2022-12-05T01:07:03.894Z,1.57
2022-12-05T01:09:30.930Z,1.52
2022-12-05T01:11:57.947Z,1.54
2022-12-05T01:14:26.088Z,1.53
2022-12-05T01:16:54.752Z,1.53
2022-12-05T01:19:30.441Z,1.59
2022-12-05T01:21:57.969Z,1.58
2022-12-05T01:24:25.913Z,1.54
2022-12-05T01:26:53.216Z,1.56
2022-12-05T01:29:22.120Z,1.58
2022-12-05T01:31:49.565Z,1.50
2022-12-05T01:34:18.045Z,1.45
2022-12-05T01:36:45.177Z,1.48
2022-12-05T01:39:13.015Z,1.52
2022-12-05T01:41:45.677Z,1.46
2022-12-05T01:44:12.696Z,1.41
2022-12-05T01:46:45.500Z,1.48
2022-12-05T01:49:18.270Z,1.41
2022-12-05T01:51:51.886Z,1.43
2022-12-05T01:54:21.169Z,1.50
2022-12-05T01:57:02.240Z,1.56
2022-12-05T01:59:34.416Z,1.50
2022-12-05T02:02:02.176Z,1.40
2022-12-05T02:04:29.081Z,1.42
2022-12-05T02:06:55.835Z,1.32
2022-12-05T02:09:23.718Z,1.38
2022-12-05T02:11:58.046Z,1.38
2022-12-05T02:15:20.659Z,1.41
2022-12-05T02:18:08.359Z,1.45
2022-12-05T02:20:34.988Z,1.43
2022-12-05T02:23:18.611Z,1.44
2022-12-05T02:26:14.769Z,1.47
2022-12-05T02:28:44.589Z,1.46
2022-12-05T02:31:28.886Z,1.48
2022-12-05T02:34:20.514Z,1.41
2022-12-05T02:36:53.275Z,1.44
2022-12-05T02:39:31.934Z,1.45
2022-12-05T02:42:21.854Z,1.46
2022-12-05T02:44:56.529Z,1.46
2022-12-05T02:47:27.708Z,1.54
2022-12-05T02:49:57.482Z,1.49
2022-12-05T02:52:25.408Z,1.41
2022-12-05T02:54:54.682Z,1.44
2022-12-05T02:57:22.177Z,1.48
2022-12-05T02:59:48.910Z,1.53
2022-12-05T03:02:28.415Z,1.56
2022-12-05T03:05:02.081Z,1.52
2022-12-05T03:07:29.532Z,1.58
2022-12-05T03:10:04.641Z,1.57
2022-12-05T03:12:35.797Z,1.54
2022-12-05T03:15:36.592Z,1.47
2022-12-05T03:18:32.439Z,1.45
2022-12-05T03:21:05.362Z,1.47
2022-12-05T03:23:42.266Z,1.43
2022-12-05T03:26:28.237Z,1.46
2022-12-05T03:29:01.269Z,1.46
2022-12-05T03:31:57.192Z,1.43
2022-12-05T03:34:43.305Z,1.46
2022-12-05T03:37:40.839Z,1.48
2022-12-05T03:40:34.502Z,1.46
2022-12-05T03:43:09.259Z,1.49
2022-12-05T03:45:47.049Z,1.46
2022-12-05T03:48:17.132Z,1.48
2022-12-05T03:50:47.509Z,1.44
2022-12-05T03:53:21.083Z,1.42
2022-12-05T03:56:01.905Z,1.36
2022-12-05T03:58:53.997Z,1.34
2022-12-05T04:01:21.985Z,1.36
2022-12-05T04:03:53.520Z,1.34
2022-12-05T04:06:29.172Z,1.31
2022-12-05T04:09:24.398Z,1.31
2022-12-05T04:11:56.794Z,1.30
2022-12-05T04:14:34.233Z,1.28
2022-12-05T04:17:06.487Z,1.32
2022-12-05T04:19:57.957Z,1.39
2022-12-05T04:22:25.792Z,1.40
2022-12-05T04:25:13.885Z,1.39
2022-12-05T04:27:51.032Z,1.33
2022-12-05T04:30:24.529Z,1.30
2022-12-05T04:33:02.995Z,1.28
2022-12-05T04:35:35.137Z,1.27
2022-12-05T04:38:11.879Z,1.26
2022-12-05T04:40:42.539Z,1.25
2022-12-05T04:43:10.919Z,1.26
2022-12-05T04:45:40.450Z,1.27
2022-12-05T04:48:14.042Z,1.28
2022-12-05T04:50:43.761Z,1.33
2022-12-05T04:53:12.431Z,1.31
2022-12-05T04:55:44.298Z,1.29
2022-12-05T04:58:19.481Z,1.19
2022-12-05T05:00:55.961Z,1.15
2022-12-05T05:03:29.536Z,1.18
2022-12-05T05:05:58.141Z,1.21
2022-12-05T05:08:30.460Z,1.24
2022-12-05T05:11:08.956Z,1.24
2022-12-05T05:13:35.700Z,1.23
2022-12-05T05:16:02.510Z,1.24
2022-12-05T05:18:29.211Z,1.28
2022-12-05T05:20:56.121Z,1.27
2022-12-05T05:23:22.811Z,1.27
2022-12-05T05:25:56.645Z,1.30
2022-12-05T05:28:26.225Z,1.36
2022-12-05T05:30:52.942Z,1.24
2022-12-05T05:33:19.707Z,1.24
2022-12-05T05:35:46.568Z,1.28
2022-12-05T05:38:13.302Z,1.30
2022-12-05T05:40:39.984Z,1.34
2022-12-05T05:43:06.657Z,1.36
2022-12-05T05:45:33.324Z,1.28
2022-12-05T05:48:00.118Z,1.21
2022-12-05T05:50:26.839Z,1.22
2022-12-05T05:52:53.517Z,1.22
2022-12-05T05:55:20.597Z,1.25
2022-12-05T05:57:47.379Z,1.21
2022-12-05T06:00:15.238Z,1.24
2022-12-05T06:02:42.047Z,1.26
2022-12-05T06:05:09.035Z,1.27
2022-12-05T06:07:35.911Z,1.30
2022-12-05T06:10:02.779Z,1.25
2022-12-05T06:12:29.534Z,1.23
2022-12-05T06:14:56.265Z,1.21
2022-12-05T06:17:22.993Z,1.18
2022-12-05T06:19:49.707Z,1.23
2022-12-05T06:22:16.454Z,1.28
2022-12-05T06:24:43.183Z,1.30
2022-12-05T06:27:13.868Z,1.21
2022-12-05T06:29:40.638Z,1.21
2022-12-05T06:32:08.111Z,1.20
2022-12-05T06:34:35.772Z,1.19
2022-12-05T06:37:02.485Z,1.13
2022-12-05T06:39:29.414Z,1.22
2022-12-05T06:41:56.276Z,1.14
2022-12-05T06:44:24.868Z,1.17
2022-12-05T06:46:51.632Z,1.19
2022-12-05T06:49:18.252Z,1.15
2022-12-05T06:51:45.045Z,1.15
2022-12-05T06:54:13.071Z,1.25
2022-12-05T06:56:39.866Z,1.22
2022-12-05T06:59:06.944Z,1.27
2022-12-05T07:01:41.093Z,1.19
2022-12-05T07:04:11.206Z,1.18
2022-12-05T07:06:38.305Z,1.22
2022-12-05T07:09:05.637Z,1.25
2022-12-05T07:11:33.286Z,1.27
2022-12-05T07:14:00.026Z,1.24
2022-12-05T07:16:26.728Z,1.27
2022-12-05T07:18:53.507Z,1.31
2022-12-05T07:21:22.160Z,1.42
2022-12-05T07:23:50.489Z,1.40
2022-12-05T07:26:23.225Z,1.35
2022-12-05T07:28:51.260Z,1.35
2022-12-05T07:31:22.053Z,1.36
2022-12-05T07:33:52.055Z,1.33
2022-12-05T07:36:22.790Z,1.28
2022-12-05T07:38:54.499Z,1.39
2022-12-05T07:41:24.314Z,1.47
2022-12-05T07:43:52.431Z,1.48
2022-12-05T07:46:19.448Z,1.47
2022-12-05T07:48:47.788Z,1.47
2022-12-05T07:51:14.748Z,1.48
2022-12-05T07:53:43.867Z,1.43
2022-12-05T07:56:14.623Z,1.49
2022-12-05T07:58:41.356Z,1.37
2022-12-05T08:01:10.414Z,1.29
2022-12-05T08:03:40.312Z,1.27
2022-12-05T08:06:11.234Z,1.26
2022-12-05T08:08:38.181Z,1.44
2022-12-05T08:11:12.749Z,1.48
2022-12-05T08:13:40.151Z,1.56
2022-12-05T08:16:11.480Z,1.56
2022-12-05T08:18:38.691Z,1.60
2022-12-05T08:21:17.767Z,1.69
2022-12-05T08:23:46.009Z,1.66
2022-12-05T08:26:24.775Z,1.69
2022-12-05T08:28:53.308Z,1.58
2022-12-05T08:31:21.445Z,1.63
2022-12-05T08:33:48.265Z,1.57
2022-12-05T08:36:15.663Z,1.64
2022-12-05T08:38:43.640Z,1.55
2022-12-05T08:41:16.605Z,1.49
2022-12-05T08:43:44.363Z,1.53
2022-12-05T08:46:12.104Z,1.54
2022-12-05T08:48:39.091Z,1.56
2022-12-05T08:51:11.469Z,1.65
2022-12-05T08:53:44.196Z,1.64
2022-12-05T08:56:11.845Z,1.61
2022-12-05T08:58:38.617Z,1.66
2022-12-05T09:01:08.383Z,1.73
2022-12-05T09:03:35.785Z,1.74
2022-12-05T09:06:10.366Z,1.71
2022-12-05T09:08:37.804Z,1.84
2022-12-05T09:11:09.468Z,1.75
2022-12-05T09:13:37.189Z,1.80
2022-12-05T09:16:08.225Z,1.71
2022-12-05T09:18:35.472Z,1.87
2022-12-05T09:21:09.458Z,1.96
2022-12-05T09:23:38.055Z,2.01
2022-12-05T09:26:06.543Z,2.02
2022-12-05T09:28:34.470Z,2.15
2022-12-05T09:31:03.799Z,2.16
2022-12-05T09:33:32.973Z,2.33
2022-12-05T09:36:02.291Z,2.37
2022-12-05T09:38:29.016Z,2.19
2022-12-05T09:41:50.567Z,2.19
2022-12-05T09:44:34.357Z,2.35
2022-12-05T09:47:05.021Z,2.17
2022-12-05T09:49:33.573Z,2.17
2022-12-05T09:52:00.995Z,2.02
2022-12-05T09:54:28.411Z,2.04
2022-12-05T09:56:55.414Z,2.09
2022-12-05T09:59:22.150Z,2.00
2022-12-05T10:02:03.729Z,1.92
2022-12-05T10:04:55.642Z,2.00
2022-12-05T10:07:34.655Z,2.10
2022-12-05T10:10:32.470Z,2.19
2022-12-05T10:13:20.864Z,2.08
2022-12-05T10:16:03.005Z,1.99
2022-12-05T10:18:52.410Z,2.04
2022-12-05T10:21:25.189Z,2.15
2022-12-05T10:23:59.352Z,2.18
2022-12-05T10:27:01.677Z,2.31
2022-12-05T10:29:31.844Z,2.42
2022-12-05T10:32:13.470Z,2.49
2022-12-05T10:34:42.499Z,2.61
2022-12-05T10:37:16.597Z,2.27
2022-12-05T10:39:43.914Z,2.31
2022-12-05T10:42:16.483Z,2.25
2022-12-05T10:44:44.631Z,2.39
2022-12-05T10:47:12.758Z,2.56
2022-12-05T10:49:40.034Z,2.50
2022-12-05T10:52:06.941Z,2.46
2022-12-05T10:54:42.035Z,2.62
2022-12-05T10:57:27.043Z,2.59
2022-12-05T10:59:54.769Z,2.61
2022-12-05T11:02:28.644Z,2.87
2022-12-05T11:04:56.400Z,2.98
2022-12-05T11:07:34.018Z,3.00
2022-12-05T11:10:03.292Z,2.74
2022-12-05T11:12:35.961Z,2.81
2022-12-05T11:15:28.082Z,2.62
2022-12-05T11:17:57.944Z,2.78
2022-12-05T11:20:25.177Z,2.78
2022-12-05T11:22:54.718Z,2.82
2022-12-05T11:25:41.713Z,2.92
2022-12-05T11:28:17.489Z,3.00
2022-12-05T11:31:21.000Z,3.16
2022-12-05T11:34:02.357Z,3.09
2022-12-05T11:36:43.878Z,3.16
2022-12-05T11:39:13.451Z,3.26
2022-12-05T11:42:04.790Z,3.24
2022-12-05T11:44:49.510Z,3.26
2022-12-05T11:47:40.851Z,3.29
2022-12-05T11:50:22.628Z,3.35
2022-12-05T11:53:16.286Z,3.35
2022-12-05T11:56:10.318Z,3.30
2022-12-05T11:58:51.176Z,3.33
2022-12-05T12:01:23.597Z,3.15
2022-12-05T12:04:51.392Z,3.02
2022-12-05T12:07:40.042Z,3.05
2022-12-05T12:10:21.125Z,2.97
2022-12-05T12:13:16.775Z,2.96
2022-12-05T12:15:55.864Z,2.96
2022-12-05T12:19:20.543Z,2.91
2022-12-05T12:21:53.314Z,2.85
2022-12-05T12:24:33.801Z,2.86
2022-12-05T12:27:16.868Z,2.81
2022-12-05T12:29:52.716Z,2.95
2022-12-05T12:32:31.674Z,2.79
2022-12-05T12:35:25.112Z,2.64
2022-12-05T12:38:13.229Z,2.67
2022-12-05T12:40:59.694Z,2.67
2022-12-05T12:43:57.432Z,2.72
2022-12-05T12:46:34.572Z,2.75
2022-12-05T12:49:16.744Z,2.58
2022-12-05T12:51:54.120Z,2.59
2022-12-05T12:54:54.772Z,2.68
2022-12-05T12:57:32.256Z,2.68
2022-12-05T13:00:29.754Z,2.71
2022-12-05T13:03:15.674Z,2.66
2022-12-05T13:05:53.250Z,2.68
2022-12-05T13:08:35.989Z,2.62
2022-12-05T13:11:07.747Z,2.57
2022-12-05T13:13:40.625Z,2.54
2022-12-05T13:16:09.033Z,2.58
2022-12-05T13:18:36.035Z,2.56
2022-12-05T13:21:09.082Z,2.67
2022-12-05T13:23:52.093Z,2.67
2022-12-05T13:26:19.065Z,2.63
2022-12-05T13:28:58.202Z,2.61
2022-12-05T13:31:43.911Z,2.71
2022-12-05T13:34:34.217Z,2.70
2022-12-05T13:37:29.283Z,2.79
2022-12-05T13:40:16.820Z,2.68
2022-12-05T13:42:44.232Z,2.59
2022-12-05T13:45:18.069Z,2.67
2022-12-05T13:48:00.067Z,2.64
2022-12-05T13:50:26.843Z,2.74
2022-12-05T13:53:17.834Z,2.77
2022-12-05T13:55:56.794Z,2.74
2022-12-05T13:58:23.464Z,2.73
2022-12-05T14:00:51.688Z,2.66
2022-12-05T14:03:38.328Z,2.67
2022-12-05T14:06:06.705Z,2.65
2022-12-05T14:08:35.853Z,2.65
2022-12-05T14:11:08.084Z,2.58
2022-12-05T14:13:43.593Z,2.56
2022-12-05T14:16:25.801Z,2.54
2022-12-05T14:19:20.161Z,2.52
2022-12-05T14:21:54.377Z,2.58
2022-12-05T14:24:53.522Z,2.59
2022-12-05T14:27:31.804Z,2.54
2022-12-05T14:30:11.489Z,2.55
2022-12-05T14:32:44.333Z,2.57
2022-12-05T14:35:17.701Z,2.63
2022-12-05T14:37:56.773Z,2.56
2022-12-05T14:40:35.365Z,2.54
2022-12-05T14:43:03.299Z,2.56
2022-12-05T14:45:41.933Z,2.53
2022-12-05T14:48:14.918Z,2.44
2022-12-05T14:50:45.956Z,2.44
2022-12-05T14:53:15.556Z,2.40
2022-12-05T14:55:46.460Z,2.42
2022-12-05T14:58:29.077Z,2.39
2022-12-05T15:01:10.877Z,2.34
2022-12-05T15:03:59.102Z,2.37
2022-12-05T15:06:26.878Z,2.37
2022-12-05T15:09:14.579Z,2.39
2022-12-05T15:11:44.042Z,2.32
2022-12-05T15:14:16.056Z,2.29
2022-12-05T15:16:45.707Z,2.26
2022-12-05T15:19:32.417Z,2.23
2022-12-05T15:22:01.876Z,2.27
2022-12-05T15:24:37.704Z,2.27
2022-12-05T15:27:06.106Z,2.32
2022-12-05T15:29:33.929Z,2.25
2022-12-05T15:32:15.447Z,2.20
2022-12-05T15:35:02.548Z,2.17
2022-12-05T15:37:29.340Z,2.21
2022-12-05T15:40:01.706Z,2.17
2022-12-05T15:42:42.665Z,2.20
2022-12-05T15:45:15.259Z,2.15
2022-12-05T15:47:50.181Z,2.15
2022-12-05T15:50:50.892Z,2.17
2022-12-05T15:53:30.696Z,2.15
2022-12-05T15:56:13.322Z,2.24
2022-12-05T15:58:49.416Z,2.23
2022-12-05T16:01:19.017Z,2.21
2022-12-05T16:03:49.429Z,2.25
2022-12-05T16:06:28.437Z,2.25
2022-12-05T16:08:56.332Z,2.23
2022-12-05T16:11:23.518Z,2.23
2022-12-05T16:13:54.628Z,2.23
2022-12-05T16:16:25.458Z,2.25
2022-12-05T16:18:57.547Z,2.26
2022-12-05T16:21:39.454Z,2.19
2022-12-05T16:24:26.825Z,2.22
2022-12-05T16:27:13.362Z,2.24
2022-12-05T16:29:40.423Z,2.25
2022-12-05T16:32:24.505Z,2.23
2022-12-05T16:34:51.930Z,2.23
2022-12-05T16:37:29.950Z,2.26
2022-12-05T16:39:57.508Z,2.22
2022-12-05T16:42:27.259Z,2.21
2022-12-05T16:45:03.950Z,2.20
2022-12-05T16:47:46.517Z,2.21
2022-12-05T16:50:32.409Z,2.25
2022-12-05T16:53:08.991Z,2.26
2022-12-05T16:55:39.438Z,2.23
2022-12-05T16:58:09.743Z,2.26
2022-12-05T17:00:36.579Z,2.25
2022-12-05T17:03:32.439Z,2.25
2022-12-05T17:05:50.783Z,2.23
2022-12-05T17:08:17.475Z,2.25
2022-12-05T17:10:44.288Z,2.28
2022-12-05T17:13:15.506Z,2.27
2022-12-05T17:15:42.797Z,2.26
2022-12-05T17:18:20.597Z,2.26
2022-12-05T17:20:53.533Z,2.23
2022-12-05T17:23:20.592Z,2.22
2022-12-05T17:25:53.157Z,2.22
2022-12-05T17:28:20.465Z,2.24
2022-12-05T17:30:47.462Z,2.22
2022-12-05T17:33:16.906Z,2.27
2022-12-05T17:35:43.966Z,2.26
2022-12-05T17:38:13.359Z,2.22
2022-12-05T17:40:40.537Z,2.22
2022-12-05T17:43:07.355Z,2.25
2022-12-05T17:45:34.106Z,2.22
2022-12-05T17:48:00.862Z,2.23
2022-12-05T17:50:28.034Z,2.26
2022-12-05T17:52:57.087Z,2.30
2022-12-05T17:55:26.825Z,2.29
2022-12-05T17:57:54.299Z,2.28
2022-12-05T18:00:23.095Z,2.23
2022-12-05T18:02:50.747Z,2.22
2022-12-05T18:05:17.750Z,2.22
2022-12-05T18:07:45.809Z,2.22
2022-12-05T18:10:19.389Z,2.20
2022-12-05T18:12:47.238Z,2.20
2022-12-05T18:15:15.482Z,2.23
2022-12-05T18:17:43.646Z,2.25
2022-12-05T18:20:13.110Z,2.19
2022-12-05T18:22:39.876Z,2.21
2022-12-05T18:25:06.956Z,2.22
2022-12-05T18:27:35.676Z,2.31
2022-12-05T18:30:03.990Z,2.25
2022-12-05T18:32:30.700Z,2.20
2022-12-05T18:34:59.130Z,2.18
2022-12-05T18:37:28.267Z,2.20
2022-12-05T18:39:56.539Z,2.20
2022-12-05T18:42:23.653Z,2.21
2022-12-05T18:44:50.414Z,2.17
2022-12-05T18:47:17.269Z,2.18
2022-12-05T18:49:43.931Z,2.17
2022-12-05T18:52:10.621Z,2.13
2022-12-05T18:54:37.412Z,2.16
2022-12-05T18:57:04.193Z,2.21
2022-12-05T18:59:31.022Z,2.19
2022-12-05T19:02:00.673Z,2.16
2022-12-05T19:04:28.837Z,2.14
2022-12-05T19:06:58.023Z,2.16
2022-12-05T19:09:27.445Z,2.10
2022-12-05T19:11:57.203Z,2.11
2022-12-05T19:14:25.796Z,2.18
2022-12-05T19:16:59.888Z,2.17
2022-12-05T19:19:27.296Z,2.18
2022-12-05T19:21:54.198Z,2.19
2022-12-05T19:24:21.025Z,2.19
2022-12-05T19:26:48.296Z,2.17
2022-12-05T19:29:16.081Z,2.18
2022-12-05T19:31:43.539Z,2.15
2022-12-05T19:34:10.852Z,2.20
2022-12-05T19:36:47.300Z,2.20
2022-12-05T19:39:18.017Z,2.08
2022-12-05T19:41:45.302Z,2.16
2022-12-05T19:44:12.543Z,2.16
2022-12-05T19:46:39.699Z,2.16
2022-12-05T19:49:10.673Z,2.13
2022-12-05T19:51:38.081Z,2.15
2022-12-05T19:54:06.777Z,2.17
2022-12-05T19:56:35.432Z,2.19
2022-12-05T19:59:02.752Z,2.20
2022-12-05T20:01:32.458Z,2.15
2022-12-05T20:04:04.628Z,2.20
2022-12-05T20:06:40.503Z,2.11
2022-12-05T20:09:08.679Z,2.11
2022-12-05T20:11:37.807Z,2.09
2022-12-05T20:14:04.627Z,2.17
2022-12-05T20:16:33.159Z,2.15
2022-12-05T20:19:00.067Z,2.13
2022-12-05T20:21:29.812Z,2.13
2022-12-05T20:23:58.167Z,2.18
2022-12-05T20:26:28.663Z,2.17
2022-12-05T20:28:58.298Z,2.21
2022-12-05T20:31:28.319Z,2.16
2022-12-05T20:33:55.913Z,2.20
2022-12-05T20:36:25.043Z,2.17
2022-12-05T20:39:02.965Z,2.15
2022-12-05T20:41:30.113Z,2.12
2022-12-05T20:43:59.578Z,2.15
2022-12-05T20:46:28.137Z,2.06
2022-12-05T20:48:56.535Z,2.14
2022-12-05T20:51:24.362Z,2.15
2022-12-05T20:53:51.526Z,2.10
2022-12-05T20:56:25.364Z,2.10
2022-12-05T20:58:55.903Z,2.11
2022-12-05T21:01:23.862Z,2.09
2022-12-05T21:03:52.116Z,2.12
2022-12-05T21:06:30.134Z,2.09
2022-12-05T21:08:58.572Z,2.08
2022-12-05T21:11:26.221Z,2.10
2022-12-05T21:13:55.711Z,2.06
2022-12-05T21:16:23.693Z,2.04
2022-12-05T21:18:51.269Z,2.00
2022-12-05T21:21:23.420Z,2.04
2022-12-05T21:23:56.249Z,2.02
2022-12-05T21:26:24.522Z,2.11
2022-12-05T21:28:51.817Z,2.09
2022-12-05T21:31:24.219Z,2.02
2022-12-05T21:33:55.900Z,2.06
2022-12-05T21:36:23.452Z,2.05
2022-12-05T21:38:55.682Z,2.06
2022-12-05T21:41:23.476Z,2.05
2022-12-05T21:43:54.406Z,2.04
2022-12-05T21:46:22.086Z,2.02
2022-12-05T21:48:48.737Z,2.06
2022-12-05T21:51:15.778Z,2.00
2022-12-05T21:53:42.578Z,2.02
2022-12-05T21:56:17.453Z,2.02
2022-12-05T21:58:45.786Z,1.98
2022-12-05T22:01:17.675Z,2.04
2022-12-05T22:03:45.050Z,2.01
2022-12-05T22:06:14.657Z,1.96
2022-12-05T22:08:41.799Z,1.97
2022-12-05T22:11:16.497Z,1.93
2022-12-05T22:13:44.582Z,1.92
2022-12-05T22:16:12.318Z,1.96
2022-12-05T22:18:39.813Z,1.96
2022-12-05T22:21:10.422Z,1.91
2022-12-05T22:23:37.197Z,1.93
2022-12-05T22:26:09.315Z,1.94
2022-12-05T22:28:36.510Z,1.94
2022-12-05T22:31:05.622Z,1.87
2022-12-05T22:33:32.719Z,1.89
2022-12-05T22:36:00.596Z,1.84
2022-12-05T22:38:33.281Z,1.89
2022-12-05T22:41:02.029Z,1.86
2022-12-05T22:43:30.281Z,1.88
2022-12-05T22:45:57.270Z,1.91
2022-12-05T22:48:24.480Z,1.91
2022-12-05T22:50:54.202Z,1.82
2022-12-05T22:53:23.130Z,1.85
2022-12-05T22:55:50.425Z,1.93
2022-12-05T22:58:17.836Z,1.93
2022-12-05T23:00:46.233Z,1.87
2022-12-05T23:03:13.026Z,1.91
2022-12-05T23:05:41.651Z,1.86
2022-12-05T23:08:08.944Z,1.82
2022-12-05T23:10:37.780Z,1.91
2022-12-05T23:13:08.738Z,1.84
2022-12-05T23:15:38.621Z,1.86
2022-12-05T23:18:05.425Z,1.76
2022-12-05T23:20:33.181Z,1.62
2022-12-05T23:22:59.900Z,1.68
2022-12-05T23:25:26.562Z,1.75
2022-12-05T23:27:53.623Z,1.68
2022-12-05T23:30:20.435Z,1.76
2022-12-05T23:32:47.114Z,1.72
2022-12-05T23:35:13.761Z,1.78
2022-12-05T23:37:40.505Z,1.75
2022-12-05T23:40:08.059Z,1.80
2022-12-05T23:42:34.791Z,1.74
2022-12-05T23:45:01.449Z,1.69
2022-12-05T23:47:28.286Z,1.74
2022-12-05T23:49:55.022Z,1.73
2022-12-05T23:52:21.703Z,1.72
2022-12-05T23:54:48.359Z,1.75
2022-12-05T23:57:17.735Z,1.76
2022-12-05T23:59:45.691Z,1.77
